Latest Weather Observations for Thredbo Top Station

IDN60801

Issued at 5:32 am EST Friday 29 April 2016 (issued every 30 minutes, with the page automatically refreshed every 10 minutes)

About weather observations | Map of weather stations | Latest weather observations for NSW | Other Formats
Station Details ID: 071032 Name: THREDBO AWS Lat: -36.49 Lon: 148.29 Height: 1957.0 m
Data from the previous 72 hours. | See also: Recent months at Thredbo Top Station
Date/Time
EST
Temp
°C
App
Temp
°C
Dew
Point
Rel
Hum
%
Delta-T
°C
Wind Press
QNH
hPa
Press
MSL
hPa
Rain
since 9 am
mm
Dir
 
Spd
km/h
Gust
km/h
Spd
kts
Gust
kts
29/05:30am 7.9 -1.5 7.3 96 0.3 NNW 46 61 25 33 1025.0 1021.7 0.0
29/05:00am 8.0 -0.9 6.9 93 0.6 NNW 43 57 23 31 1024.7 1021.5 0.0
29/04:30am 8.0 -0.1 6.9 93 0.6 NNW 39 57 21 31 1024.8 1021.6 0.0
29/04:25am 7.9 -0.2 7.1 95 0.4 NNW 39 57 21 31 1024.7 1021.5 0.0
29/04:00am 8.0 -0.9 6.8 92 0.6 NNW 43 59 23 32 1024.3 1021.1 0.0
29/03:30am 7.9 -1.2 6.7 92 0.6 NNW 44 65 24 35 1024.5 1021.2 0.0
29/03:01am 8.0 -1.4 7.1 94 0.5 NNW 46 65 25 35 1024.8 1021.6 0.0
29/03:00am 8.0 -1.8 7.1 94 0.5 NNW 48 65 26 35 1024.6 1021.3 0.0
29/02:30am 8.1 -1.1 6.2 88 1.0 NNW 44 57 24 31 1024.8 1021.6 0.0
29/02:00am 7.9 -2.4 6.4 90 0.8 NNW 50 59 27 32 1025.0 1021.7 0.0
29/01:30am 8.0 -1.6 6.1 88 1.0 NNW 46 59 25 32 1025.2 1022.0 0.0
29/01:00am 8.0 -0.7 5.8 86 1.1 NNW 41 57 22 31 1025.4 1022.2 0.0
29/12:30am 7.8 -1.4 5.6 86 1.1 NNW 43 54 23 29 1025.8 1022.6 0.0
29/12:00am 7.7 -0.4 5.2 84 1.2 NNW 37 46 20 25 1026.2 1023.0 0.0
 
Date/Time
EST
Temp
°C
App
Temp
°C
Dew
Point
Rel
Hum
%
Delta-T
°C
Wind Press
QNH
hPa
Press
MSL
hPa
Rain
since 9 am
mm
Dir
 
Spd
km/h
Gust
km/h
Spd
kts
Gust
kts
28/11:30pm 7.2 1.4 4.5 83 1.3 NNW 24 35 13 19 1026.9 1023.7 0.0
28/11:00pm 6.7 2.6 4.4 85 1.1 N 15 20 8 11 1027.5 1024.4 0.0
28/10:30pm 6.9 2.6 5.1 88 0.9 N 17 20 9 11 1028.1 1025.0 0.0
28/10:00pm 7.0 1.8 5.5 90 0.7 N 22 26 12 14 1028.2 1025.1 0.0
28/09:30pm 5.8 1.0 5.4 97 0.2 N 20 26 11 14 1027.6 1024.5 0.0
28/09:00pm 6.8 3.0 5.7 93 0.6 NNE 15 19 8 10 1027.7 1024.6 0.0
28/08:30pm 6.3 2.3 5.1 92 0.6 NNE 15 20 8 11 1028.0 1024.9 0.0
28/08:00pm 6.8 2.5 5.3 90 0.7 NNE 17 19 9 10 1027.9 1024.7 0.0
28/07:30pm 7.1 3.6 5.4 89 0.9 NNE 13 19 7 10 1027.6 1024.5 0.0
28/07:00pm 6.9 3.3 5.1 88 0.9 N 13 15 7 8 1027.5 1024.4 0.0
28/06:30pm 7.0 2.8 5.5 90 0.8 N 17 24 9 13 1027.3 1024.1 0.0
28/06:00pm 7.0 2.8 5.5 90 0.7 NNW 17 22 9 12 1027.1 1024.0 0.0
28/05:30pm 7.4 2.8 5.5 88 1.0 N 19 24 10 13 1027.0 1023.9 0.0
28/05:00pm 7.5 3.7 5.6 88 1.0 N 15 28 8 15 1027.1 1024.0 0.0
28/04:30pm 7.9 3.1 5.5 85 1.2 NNW 20 28 11 15 1027.0 1023.9 0.0
28/04:00pm 8.0 2.9 6.0 87 1.0 NNW 22 32 12 17 1027.0 1023.9 0.0
28/03:30pm 8.3 1.2 5.6 83 1.4 NNW 32 39 17 21 1026.4 1023.2 0.0
28/03:00pm 8.4 0.7 5.5 82 1.5 NNW 35 44 19 24 1026.0 1022.9 0.0
28/02:30pm 8.8 0.4 5.4 79 1.7 NW 39 54 21 29 1025.7 1022.5 0.0
28/02:27pm 9.2 1.6 5.6 78 1.8 NW 35 46 19 25 1025.7 1022.5 0.0
28/02:14pm 9.4 4.9 6.1 80 1.7 W 19 44 10 24 1026.4 1023.2 0.0
28/02:00pm 8.5 3.9 5.6 82 1.5 WNW 19 39 10 21 1026.9 1023.7 0.0
28/01:30pm 8.3 3.5 5.8 84 1.3 NW 20 44 11 24 1027.0 1023.9 0.0
28/01:00pm 8.4 1.3 5.5 82 1.5 NW 32 48 17 26 1026.5 1023.4 0.0
28/12:51pm 9.0 1.0 5.7 80 1.7 NW 37 56 20 30 1026.7 1023.5 0.0
28/12:30pm 9.6 -0.9 5.8 77 2.0 NW 50 63 27 34 1026.2 1023.0 0.0
28/12:00pm 8.4 -3.2 5.7 83 1.4 NW 56 70 30 38 1026.3 1023.1 0.0
28/11:30am 7.4 -3.1 5.7 89 0.9 NW 50 69 27 37 1026.3 1023.1 0.0
28/11:01am 7.1 -0.1 5.7 91 0.7 NW 33 61 18 33 1026.7 1023.5 0.0
28/11:00am 7.0 -0.3 5.6 91 0.7 NW 33 48 18 26 1026.5 1023.4 0.0
28/10:44am 7.0 -1.0 5.6 91 0.7 NNW 37 56 20 30 1027.1 1024.0 0.0
28/10:30am 7.1 -0.5 5.6 90 0.8 NNW 35 48 19 26 1027.0 1023.9 0.0
28/10:00am 7.3 2.7 5.8 90 0.8 NW 19 35 10 19 1028.0 1024.9 0.0
28/09:39am 7.1 -2.0 5.7 91 0.7 NNW 43 61 23 33 1027.0 1023.9 0.0
28/09:30am 7.2 -3.3 5.8 91 0.7 NNW 50 63 27 34 1026.5 1023.4 0.0
28/09:00am 6.9 -2.8 5.7 92 0.6 NNW 46 59 25 32 1026.8 1023.6 0.0
28/08:30am 6.9 -1.9 5.7 92 0.6 NNW 41 54 22 29 1026.9 1023.7 0.0
28/08:01am 6.8 -1.6 5.7 93 0.6 NNW 39 59 21 32 1026.5 1023.4 0.0
28/08:00am 6.8 -1.6 5.7 93 0.6 NNW 39 56 21 30 1026.5 1023.4 0.0
28/07:33am 6.9 -1.5 5.8 93 0.6 NNW 39 59 21 32 1026.4 1023.2 0.0
28/07:30am 6.9 -1.1 5.8 93 0.6 NNW 37 52 20 28 1026.4 1023.2 0.0
28/07:25am 6.9 -1.1 5.8 93 0.6 NNW 37 56 20 30 1026.4 1023.2 0.0
28/07:00am 6.8 -2.0 5.7 93 0.6 NNW 41 56 22 30 1025.9 1022.7 0.0
28/06:30am 6.7 -2.4 5.7 93 0.5 NNW 43 54 23 29 1025.7 1022.5 0.0
28/06:00am 6.9 -1.5 5.4 90 0.7 NNW 39 52 21 28 1025.8 1022.6 0.0
28/05:47am 6.8 -1.7 5.1 89 0.8 NNW 39 57 21 31 1025.8 1022.6 0.0
28/05:30am 6.8 -2.5 5.1 89 0.8 NNW 43 56 23 30 1025.4 1022.2 0.0
28/05:00am 6.8 -2.1 5.1 89 0.8 NNW 41 52 22 28 1025.3 1022.1 0.0
28/04:30am 6.9 -2.9 5.2 89 0.8 NNW 46 67 25 36 1025.0 1021.7 0.0
28/04:07am 6.8 -4.1 5.3 90 0.7 NNW 52 70 28 38 1024.5 1021.2 0.0
28/04:00am 6.9 -5.0 5.4 90 0.7 NNW 57 70 31 38 1024.2 1021.0 0.0
28/03:30am 6.7 -5.2 5.3 91 0.7 NNW 57 80 31 43 1024.1 1020.8 0.0
28/03:01am 6.8 -3.8 5.1 89 0.8 NNW 50 76 27 41 1024.3 1021.1 0.0
28/03:00am 6.8 -3.8 5.1 89 0.8 NNW 50 63 27 34 1024.7 1021.5 0.0
28/02:31am 6.9 -2.6 5.1 88 0.9 NNW 44 63 24 34 1025.1 1021.8 0.0
28/02:30am 6.9 -2.6 5.1 88 0.9 NNW 44 59 24 32 1025.2 1022.0 0.0
28/02:01am 6.9 -2.5 4.7 86 1.1 NNW 43 67 23 36 1025.3 1022.1 0.0
28/02:00am 6.9 -2.5 4.7 86 1.1 NNW 43 57 23 31 1025.2 1022.0 0.0
28/01:30am 7.0 -2.9 4.7 85 1.1 NNW 46 65 25 35 1025.4 1022.2 0.0
28/01:13am 7.0 -2.0 4.7 85 1.1 NNW 41 59 22 32 1025.8 1022.6 0.0
28/01:00am 7.0 -2.6 4.5 84 1.2 NNW 44 57 24 31 1025.4 1022.2 0.0
28/12:32am 7.0 -3.7 4.5 84 1.2 NNW 50 69 27 37 1025.0 1021.7 0.0
28/12:30am 6.9 -4.2 4.4 84 1.2 NNW 52 69 28 37 1025.0 1021.7 0.0
28/12:00am 7.0 -4.9 4.5 84 1.2 NNW 56 72 30 39 1024.3 1021.1 0.0
 
Date/Time
EST
Temp
°C
App
Temp
°C
Dew
Point
Rel
Hum
%
Delta-T
°C
Wind Press
QNH
hPa
Press
MSL
hPa
Rain
since 9 am
mm
Dir
 
Spd
km/h
Gust
km/h
Spd
kts
Gust
kts
27/11:30pm 7.1 -5.8 4.2 82 1.4 NNW 61 76 33 41 1024.2 1021.0 0.0
27/11:00pm 7.0 -5.9 4.1 82 1.4 NNW 61 80 33 43 1024.1 1020.8 0.0
27/10:56pm 7.1 -5.8 4.2 82 1.4 NNW 61 80 33 43 1024.1 1020.8 0.0
27/10:30pm 7.1 -5.3 4.6 84 1.2 NNW 59 76 32 41 1024.5 1021.2 0.0
27/10:17pm 7.0 -4.0 4.8 86 1.1 NNW 52 72 28 39 1024.7 1021.5 0.0
27/10:00pm 7.1 -4.4 4.2 82 1.4 NNW 54 70 29 38 1025.2 1022.0 0.0
27/09:30pm 6.9 -4.2 4.6 85 1.1 NW 52 69 28 37 1025.4 1022.2 0.0
27/09:00pm 6.7 -4.1 4.0 83 1.3 NNW 50 59 27 32 1025.4 1022.2 0.0
27/08:30pm 10.2 -1.1 -11.7 20 7.6 NNW 43 52 23 28 1026.2 1023.0 0.0
27/08:00pm 6.7 -3.1 -0.1 62 3.0 NNW 41 48 22 26 1026.5 1023.4 0.0
27/07:30pm 5.8 -2.9 2.3 78 1.6 NNW 37 44 20 24 1027.0 1023.9 0.0
27/07:00pm 5.9 -2.6 2.9 81 1.4 NNW 37 44 20 24 1026.9 1023.7 0.0
27/06:30pm 5.5 -2.0 3.5 87 0.9 NNW 32 41 17 22 1027.0 1023.9 0.0
27/06:00pm 5.9 -2.2 3.1 82 1.3 NNW 35 41 19 22 1026.9 1023.7 0.0
27/05:30pm 6.1 -1.0 3.6 84 1.2 NNW 30 37 16 20 1026.8 1023.6 0.0
27/05:00pm 6.9 0.9 3.3 78 1.7 NW 24 35 13 19 1027.0 1023.9 0.0
27/04:30pm 7.8 1.8 3.3 73 2.2 NNW 24 33 13 18 1027.0 1023.9 0.0
27/04:00pm 8.2 2.1 2.7 68 2.6 NNW 24 35 13 19 1027.0 1023.9 0.0
27/03:30pm 8.9 1.4 3.3 68 2.7 NNW 32 41 17 22 1026.5 1023.4 0.0
27/03:00pm 9.7 1.8 0.9 54 4.0 NNW 32 41 17 22 1026.5 1023.4 0.0
27/02:30pm 9.5 1.9 2.6 62 3.3 NNW 32 41 17 22 1026.7 1023.5 0.0
27/02:00pm 9.7 1.7 1.6 57 3.8 NNW 33 43 18 23 1026.8 1023.6 0.0
27/01:30pm 9.5 0.4 -0.9 48 4.6 NNW 37 46 20 25 1026.8 1023.6 0.0
27/01:00pm 9.7 0.8 0.6 53 4.2 NNW 37 46 20 25 1027.3 1024.1 0.0
27/12:30pm 9.9 0.6 0.5 52 4.3 NNW 39 48 21 26 1027.4 1024.2 0.0
27/12:00pm 8.9 -1.0 1.6 60 3.4 NNW 43 52 23 28 1027.6 1024.5 0.0
27/11:30am 8.9 -1.0 1.6 60 3.4 NNW 43 54 23 29 1027.7 1024.6 0.0
27/11:00am 9.5 -0.3 0.1 52 4.2 NW 41 52 22 28 1028.1 1025.0 0.0
27/10:30am 8.9 -1.6 1.6 60 3.4 NW 46 59 25 32 1028.0 1024.9 0.0
27/10:00am 9.3 -1.5 -0.8 49 4.5 NW 46 61 25 33 1028.2 1025.1 0.0
27/09:39am 9.1 -1.6 -2.5 44 4.9 NW 44 65 24 35 1028.1 1025.0 0.0
27/09:30am 9.7 -1.3 -5.4 34 6.1 NW 44 61 24 33 1028.5 1025.4 0.0
27/09:27am 9.9 -1.1 -7.3 29 6.6 NW 43 61 23 33 1028.5 1025.4 0.0
27/09:00am 10.0 -1.4 -9.6 24 7.1 NW 44 59 24 32 1028.6 1025.5 0.0
27/08:30am 9.4 -2.6 -7.3 30 6.4 NW 48 59 26 32 1028.6 1025.5 0.0
27/08:00am 7.7 -2.9 -1.5 52 3.9 NW 44 56 24 30 1028.7 1025.6 0.0
27/07:30am 6.3 -4.6 1.4 71 2.2 NW 48 57 26 31 1028.3 1025.3 0.0
27/07:00am 5.6 -5.4 3.1 84 1.2 NW 50 61 27 33 1028.2 1025.1 0.0
27/06:30am 5.3 -5.7 2.8 84 1.2 NW 50 61 27 33 1028.1 1025.0 0.0
27/06:00am 5.5 -5.9 3.0 84 1.2 NW 52 63 28 34 1028.2 1025.1 0.0
27/05:30am 5.7 -5.4 2.5 80 1.5 NW 50 59 27 32 1028.3 1025.3 0.0
27/05:00am 5.7 -4.6 2.4 79 1.5 NW 46 59 25 32 1028.2 1025.1 0.0
27/04:30am 6.0 -3.6 1.0 70 2.2 NW 41 52 22 28 1028.2 1025.1 0.0
27/04:00am 6.0 -3.6 1.0 70 2.2 NNW 41 48 22 26 1028.3 1025.3 0.0
27/03:30am 5.0 -5.1 0.2 71 2.1 N 43 48 23 26 1028.5 1025.4 0.0
27/03:00am 5.0 -5.1 -2.8 57 3.1 N 41 46 22 25 1028.7 1025.6 0.0
27/02:30am 5.7 -4.7 -9.7 32 5.3 NNW 39 44 21 24 1029.2 1026.1 0.0
27/02:00am 6.1 -5.1 -9.7 31 5.4 NNW 43 48 23 26 1029.4 1026.4 0.0
27/01:30am 7.0 -4.5 -11.6 25 6.2 NNW 44 50 24 27 1029.7 1026.6 0.0
27/01:00am 7.4 -3.7 -14.1 20 6.8 NNW 41 46 22 25 1029.9 1026.9 0.0
27/12:30am 6.5 -3.4 -13.6 22 6.4 NNW 35 41 19 22 1030.3 1027.3 0.0
27/12:00am 5.8 -3.4 -10.8 29 5.5 N 32 37 17 20 1030.6 1027.7 0.0
 
Date/Time
EST
Temp
°C
App
Temp
°C
Dew
Point
Rel
Hum
%
Delta-T
°C
Wind Press
QNH
hPa
Press
MSL
hPa
Rain
since 9 am
mm
Dir
 
Spd
km/h
Gust
km/h
Spd
kts
Gust
kts
26/11:30pm 3.9 -5.1 -6.1 48 3.7 NNW 33 37 18 20 1030.6 1027.7 0.0
26/11:00pm 5.1 -3.7 -6.1 44 4.2 N 32 37 17 20 1030.9 1027.9 0.0
26/10:30pm 4.4 -4.6 -3.1 58 3.0 N 35 37 19 20 1031.0 1028.0 0.0
26/10:00pm 4.4 -4.6 -2.7 60 2.8 N 35 39 19 21 1031.0 1028.0 0.0
26/09:30pm 4.3 -4.2 -3.2 58 3.0 N 32 37 17 20 1031.1 1028.2 0.0
26/09:00pm 3.8 -4.5 -5.1 52 3.3 NNW 30 32 16 17 1031.5 1028.5 0.0
26/08:30pm 5.0 -3.7 -4.8 49 3.8 N 32 32 17 17 1031.6 1028.7 0.0
26/08:00pm 5.1 -1.1 -5.3 47 3.9 N 19 20 10 11 1032.1 1029.2 0.0
26/07:30pm 6.9 0.5 -5.4 41 4.8 NNE 20 24 11 13 1032.3 1029.4 0.0
26/07:00pm 6.9 0.7 -4.8 43 4.6 NNE 19 22 10 12 1032.3 1029.4 0.0
26/06:30pm 7.2 1.4 -5.1 41 4.8 NNE 17 20 9 11 1032.3 1029.4 0.0
26/06:00pm 8.2 2.3 -5.6 37 5.4 NNE 17 20 9 11 1032.1 1029.2 0.0
26/05:30pm 8.2 2.7 -5.6 37 5.4 NNE 15 19 8 10 1032.0 1029.0 0.0
26/05:00pm 9.0 3.8 -6.0 34 5.8 NE 13 19 7 10 1032.0 1029.0 0.0
26/04:30pm 10.6 5.1 -5.8 31 6.6 NE 15 19 8 10 1032.2 1029.3 0.0
26/04:00pm 11.6 6.2 -4.1 33 6.6 NE 15 19 8 10 1032.3 1029.4 0.0
26/03:30pm 12.3 7.1 -2.7 35 6.6 ENE 15 19 8 10 1032.3 1029.4 0.0
26/03:00pm 13.2 8.4 -2.3 34 6.8 ENE 13 17 7 9 1032.6 1029.7 0.0
26/02:30pm 13.2 9.0 -3.5 31 7.2 E 9 15 5 8 1032.6 1029.7 0.0
26/02:00pm 13.8 10.3 -1.0 36 6.7 E 7 15 4 8 1032.6 1029.7 0.0
26/01:30pm 13.2 9.2 -2.3 34 6.9 ENE 9 13 5 7 1032.9 1030.1 0.0
26/01:00pm 13.5 9.4 -3.3 31 7.3 E 9 19 5 10 1033.2 1030.3 0.0
26/12:30pm 13.8 10.0 -3.9 29 7.6 E 7 13 4 7 1033.4 1030.6 0.0
26/12:00pm 13.3 9.8 -3.0 32 7.1 ESE 6 13 3 7 1033.9 1031.1 0.0
26/11:30am 13.0 9.5 -2.9 33 7.0 SSE 6 11 3 6 1034.4 1031.6 0.0
26/11:00am 13.1 9.4 -5.0 28 7.5 SSE 6 11 3 6 1034.6 1031.8 0.0
26/10:30am 13.0 9.0 -7.6 23 8.1 E 6 9 3 5 1034.8 1031.9 0.0
26/10:00am 13.0 9.4 -7.1 24 8.0 ESE 4 9 2 5 1034.8 1031.9 0.0
26/09:30am 12.5 8.8 -8.6 22 8.1 E 4 9 2 5 1034.9 1032.1 0.0
26/09:00am 12.1 8.4 -8.9 22 7.9 E 4 6 2 3 1035.0 1032.2 0.0
26/08:30am 10.9 6.9 -7.8 26 7.2 NNW 6 7 3 4 1034.8 1031.9 0.0
26/08:00am 9.1 5.1 -7.1 31 6.1 NNW 6 7 3 4 1034.6 1031.8 0.0
26/07:30am 5.1 0.5 -7.4 40 4.5 NW 9 11 5 6 1034.4 1031.6 0.0
26/07:00am 4.9 0.7 -7.9 39 4.5 NW 7 13 4 7 1034.2 1031.3 0.0
26/06:30am 3.4 0.1 -8.3 42 4.3 N 2 7 1 4 1033.9 1031.1 0.0
26/06:00am 8.1 3.0 -9.7 27 6.3 WSW 11 20 6 11 1033.8 1030.9 0.0

Other Formats:

Comma delimited format used in spreadsheet applications
http://www.bom.gov.au/fwo/IDN60801/IDN60801.95909.axf

JavaScript Object Notation format (JSON) in row-major order
http://www.bom.gov.au/fwo/IDN60801/IDN60801.95909.json